San Francisco, California
Traffic Map
Current Weather Conditions
San Francisco, California
Overcast
Overcast
58°
Feels Like: 58°
Wind Chill: 58° Ceiling: 1100
Heat Index: 58° Visibility: 10mi
Dew Point: 53° Wind: 6mph
Humidity: 84% Direction: 220° (SW)
Pressure: 29.96in Gusts: 0mph
Raw Report DataKSFO 211356Z 22005KT 10SM FEW007 OVC011 14/12 A2996 RMK AO2 SLP145 T01440117
Traffic Incident Summary
Active as of:
Severity:
Category:
InformationThere was an issue retrieving the traffic information for this location. Please try a different location or try again shortly.
Advertisements